DTTX/SFA METAR and TAF weather

Enter ICAO airport designator
Station Type Date Time Source
DTTX METAR 2021/09/16 22:00 UTC NOAA

DTTX 162200Z 14007KT 8000 NSC 28/24 Q1017


Station Type Date Time Source
DTTX Decoded METAR 2021/09/16 22:00 UTC NOAA

Sfax El-Maou, Tunisia (DTTX) 34-43N 010-41E 23M
Sep 16, 2021 - 06:00 PM EDT / 2021.09.16 2200 UTC
Wind: from the SE (140 degrees) at 8 MPH (7 KT):0
Visibility: 4 mile(s):0
Temperature: 82 F (28 C)
Dew Point: 75 F (24 C)
Relative Humidity: 78%
Pressure (altimeter): 30.03 in. Hg (1017 hPa)
ob: DTTX 162200Z 14007KT 8000 NSC 28/24 Q1017
cycle: 22

Station Type Date Time Source
DTTX TAF 2021/09/16 18:09 UTC NOAA

TAF DTTX 161700Z 1618/1718 11010KT CAVOK
BECMG 1701/1703 VRB02KT
BECMG 1710/1712 16010KT

Example: see airport list